createdAt,value
2022-08-14T00:00:13.465Z,18.66
2022-08-14T00:01:13.221Z,18.60
2022-08-14T00:02:12.462Z,18.55
2022-08-14T00:03:12.965Z,18.53
2022-08-14T00:04:34.205Z,18.47
2022-08-14T00:05:13.428Z,18.52
2022-08-14T00:06:25.313Z,18.43
2022-08-14T00:07:14.260Z,18.38
2022-08-14T00:08:14.090Z,18.41
2022-08-14T00:09:12.381Z,18.40
2022-08-14T00:10:51.960Z,18.31
2022-08-14T00:11:13.366Z,18.20
2022-08-14T00:12:23.757Z,18.29
2022-08-14T00:13:13.560Z,18.23
2022-08-14T00:14:12.354Z,18.20
2022-08-14T00:15:15.054Z,18.19
2022-08-14T00:16:12.369Z,18.26
2022-08-14T00:17:13.386Z,18.23
2022-08-14T00:18:14.501Z,18.20
2022-08-14T00:19:19.355Z,18.18
2022-08-14T00:20:13.326Z,18.16
2022-08-14T00:21:12.964Z,18.18
2022-08-14T00:22:12.330Z,18.19
2022-08-14T00:23:16.518Z,18.19
2022-08-14T00:24:12.296Z,18.19
2022-08-14T00:25:12.322Z,18.13
2022-08-14T00:26:21.471Z,18.26
2022-08-14T00:27:13.298Z,18.19
2022-08-14T00:28:15.398Z,18.29
2022-08-14T00:29:13.269Z,18.19
2022-08-14T00:30:14.306Z,18.13
2022-08-14T00:31:13.743Z,18.13
2022-08-14T00:32:53.008Z,18.16
2022-08-14T00:33:15.186Z,18.07
2022-08-14T00:34:37.243Z,18.10
2022-08-14T00:35:14.186Z,18.11
2022-08-14T00:36:37.635Z,18.08
2022-08-14T00:37:13.276Z,18.00
2022-08-14T00:38:12.220Z,17.95
2022-08-14T00:39:12.271Z,17.90
2022-08-14T00:40:27.299Z,17.86
2022-08-14T00:41:13.161Z,17.86
2022-08-14T00:42:52.858Z,17.86
2022-08-14T00:43:13.267Z,17.87
2022-08-14T00:44:12.109Z,17.70
2022-08-14T00:45:12.204Z,17.71
2022-08-14T00:46:32.774Z,17.82
2022-08-14T00:47:13.157Z,17.74
2022-08-14T00:48:12.057Z,17.80
2022-08-14T00:49:14.619Z,17.79
2022-08-14T00:50:17.664Z,17.80
2022-08-14T00:51:13.146Z,17.79
2022-08-14T00:52:14.078Z,17.74
2022-08-14T00:53:13.111Z,17.79
2022-08-14T00:54:21.176Z,17.79
2022-08-14T00:55:13.909Z,17.90
2022-08-14T00:56:15.428Z,17.74
2022-08-14T00:57:11.999Z,17.83
2022-08-14T00:58:12.747Z,17.76
2022-08-14T00:59:12.060Z,17.78
2022-08-14T01:00:34.128Z,17.82
2022-08-14T01:01:13.250Z,17.78
2022-08-14T01:02:12.055Z,17.72
2022-08-14T01:03:11.957Z,17.74
2022-08-14T01:04:51.792Z,17.67
2022-08-14T01:05:13.002Z,17.74
2022-08-14T01:06:12.008Z,17.92
2022-08-14T01:07:11.989Z,17.87
2022-08-14T01:08:20.657Z,18.00
2022-08-14T01:09:12.940Z,18.03
2022-08-14T01:10:11.904Z,17.97
2022-08-14T01:11:11.940Z,18.00
2022-08-14T01:12:12.955Z,17.98
2022-08-14T01:13:12.894Z,18.00
2022-08-14T01:14:25.525Z,18.05
2022-08-14T01:15:14.702Z,18.10
2022-08-14T01:16:14.761Z,18.11
2022-08-14T01:17:11.873Z,18.04
2022-08-14T01:18:11.818Z,18.18
2022-08-14T01:19:11.947Z,18.08
2022-08-14T01:20:27.579Z,18.18
2022-08-14T01:21:13.300Z,18.19
2022-08-14T01:22:12.978Z,18.18
2022-08-14T01:23:16.730Z,18.20
2022-08-14T01:24:12.821Z,18.15
2022-08-14T01:25:11.821Z,18.18
2022-08-14T01:26:11.855Z,18.18
2022-08-14T01:27:12.763Z,18.23
2022-08-14T01:28:11.799Z,18.16
2022-08-14T01:29:22.148Z,18.18
2022-08-14T01:30:12.804Z,18.20
2022-08-14T01:31:11.758Z,18.16
2022-08-14T01:32:11.780Z,18.22
2022-08-14T01:33:11.772Z,18.20
2022-08-14T01:35:19.430Z,18.15
2022-08-14T01:35:20.997Z,18.22
2022-08-14T01:36:22.780Z,18.31
2022-08-14T01:37:12.727Z,18.16
2022-08-14T01:38:11.701Z,18.19
2022-08-14T01:39:12.694Z,18.19
2022-08-14T01:40:11.681Z,18.19
2022-08-14T01:41:14.841Z,18.28
2022-08-14T01:42:11.732Z,18.16
2022-08-14T01:43:12.660Z,18.25
2022-08-14T01:44:33.135Z,18.15
2022-08-14T02:02:19.102Z,17.67
2022-08-14T02:03:15.843Z,17.71
2022-08-14T02:04:40.867Z,17.57
2022-08-14T02:05:16.804Z,17.54
2022-08-14T02:06:32.696Z,17.39
2022-08-14T02:07:17.914Z,17.45
2022-08-14T02:08:22.439Z,17.45
2022-08-14T02:09:22.247Z,17.48
2022-08-14T02:10:16.989Z,17.48
2022-08-14T02:11:16.895Z,17.41
2022-08-14T02:12:19.395Z,17.42
2022-08-14T02:14:35.450Z,17.38
2022-08-14T02:15:35.456Z,17.36
2022-08-14T02:16:35.501Z,17.39
2022-08-14T02:17:36.552Z,17.44
2022-08-14T02:18:36.554Z,17.34
2022-08-14T02:19:36.544Z,17.36
2022-08-14T02:20:36.557Z,17.26
2022-08-14T02:21:43.319Z,17.26
2022-08-14T02:22:47.452Z,17.15
2022-08-14T02:23:37.514Z,17.14
2022-08-14T02:24:39.859Z,17.22
2022-08-14T02:25:36.527Z,17.29
2022-08-14T02:28:18.652Z,17.26
2022-08-14T02:28:24.026Z,17.12
2022-08-14T02:28:57.189Z,17.09
2022-08-14T02:29:56.441Z,17.04
2022-08-14T02:30:38.601Z,17.11
2022-08-14T02:31:43.442Z,17.05
2022-08-14T02:32:37.586Z,17.06
2022-08-14T02:33:38.990Z,17.05
2022-08-14T02:34:36.464Z,17.01
2022-08-14T02:35:40.926Z,16.96
2022-08-14T02:37:05.430Z,16.91
2022-08-14T02:37:47.365Z,16.89
2022-08-14T02:38:37.396Z,16.79
2022-08-14T02:39:37.216Z,16.86
2022-08-14T02:41:09.065Z,16.79
2022-08-14T02:41:39.971Z,16.79
2022-08-14T02:42:38.419Z,16.84
2022-08-14T02:43:46.423Z,16.83
2022-08-14T02:44:39.642Z,16.90
2022-08-14T02:45:38.499Z,16.81
2022-08-14T02:46:37.365Z,16.83
2022-08-14T02:47:38.870Z,16.93
2022-08-14T02:49:01.615Z,16.90
2022-08-14T02:49:37.317Z,16.99
2022-08-14T02:50:36.310Z,17.02
2022-08-14T02:51:36.977Z,17.04
2022-08-14T02:52:57.880Z,17.11
2022-08-14T02:53:37.357Z,17.11
2022-08-14T02:54:36.294Z,17.05
2022-08-14T02:55:36.276Z,17.14
2022-08-14T02:57:16.229Z,17.19
2022-08-14T02:57:39.711Z,17.16
2022-08-14T02:58:37.107Z,17.08
2022-08-14T02:59:36.338Z,17.26
2022-08-14T03:00:40.144Z,17.27
2022-08-14T03:01:50.362Z,17.27
2022-08-14T03:02:56.257Z,17.26
2022-08-14T03:03:38.985Z,17.20
2022-08-14T03:04:36.206Z,17.23
2022-08-14T03:05:37.206Z,17.19
2022-08-14T03:06:58.107Z,17.26
2022-08-14T03:07:37.160Z,17.11
2022-08-14T03:08:36.167Z,17.15
2022-08-14T03:10:25.253Z,17.06
2022-08-14T03:10:37.147Z,17.12
2022-08-14T03:11:36.168Z,17.09
2022-08-14T03:12:36.181Z,17.16
2022-08-14T03:13:36.168Z,17.16
2022-08-14T03:14:36.161Z,17.11
2022-08-14T03:15:36.150Z,17.11
2022-08-14T03:16:36.178Z,17.08
2022-08-14T03:17:41.180Z,17.14
2022-08-14T03:18:38.043Z,17.06
2022-08-14T03:19:36.083Z,17.02
2022-08-14T03:20:36.092Z,17.06
2022-08-14T03:21:36.129Z,17.08
2022-08-14T03:22:36.080Z,17.11
2022-08-14T03:23:36.462Z,17.11
2022-08-14T03:24:36.047Z,17.01
2022-08-14T03:25:37.719Z,17.05
2022-08-14T03:26:36.080Z,17.02
2022-08-14T03:27:47.733Z,17.01
2022-08-14T03:28:37.031Z,16.96
2022-08-14T03:29:36.023Z,16.93
2022-08-14T03:30:38.891Z,17.01
2022-08-14T03:31:36.045Z,16.96
2022-08-14T03:32:36.029Z,16.91
2022-08-14T03:33:37.832Z,16.90
2022-08-14T03:34:47.930Z,16.93
2022-08-14T03:35:40.277Z,16.87
2022-08-14T03:37:51.401Z,16.83
2022-08-14T03:39:09.749Z,16.83
2022-08-14T03:39:11.618Z,16.79
2022-08-14T03:39:36.977Z,16.74
2022-08-14T03:40:35.911Z,16.79
2022-08-14T03:41:35.940Z,16.68
2022-08-14T03:42:36.861Z,16.71
2022-08-14T03:43:35.906Z,16.75
2022-08-14T03:45:28.013Z,16.76
2022-08-14T03:45:36.880Z,16.68
2022-08-14T04:01:41.558Z,16.47
2022-08-14T04:02:46.686Z,16.47
2022-08-14T04:03:41.355Z,16.49
2022-08-14T04:04:40.343Z,16.46
2022-08-14T04:05:43.040Z,16.43
2022-08-14T04:06:42.580Z,16.49
2022-08-14T04:07:41.557Z,16.53
2022-08-14T04:08:41.961Z,16.66
2022-08-14T04:09:40.330Z,16.61
2022-08-14T04:10:40.291Z,16.60
2022-08-14T04:11:40.282Z,16.51
2022-08-14T04:12:40.336Z,16.61
2022-08-14T04:13:41.182Z,16.64
2022-08-14T04:14:40.251Z,16.61
2022-08-14T04:15:52.790Z,16.51
2022-08-14T04:16:41.237Z,16.58
2022-08-14T04:17:40.247Z,16.64
2022-08-14T04:18:40.231Z,16.56
2022-08-14T04:19:40.203Z,16.65
2022-08-14T04:20:51.474Z,16.60
2022-08-14T04:22:02.029Z,16.64
2022-08-14T04:22:41.186Z,16.60
2022-08-14T04:23:40.186Z,16.60
2022-08-14T04:24:40.197Z,16.68
2022-08-14T04:25:40.207Z,16.64
2022-08-14T04:26:43.067Z,16.68
2022-08-14T04:28:01.588Z,16.66
2022-08-14T04:29:05.331Z,16.69
2022-08-14T04:29:41.135Z,16.72
2022-08-14T04:30:42.260Z,16.65
2022-08-14T04:32:58.748Z,16.66
2022-08-14T04:32:59.927Z,16.72
2022-08-14T04:33:41.097Z,16.61
2022-08-14T04:34:41.974Z,16.61
2022-08-14T04:35:56.096Z,16.69
2022-08-14T04:36:41.849Z,16.76
2022-08-14T04:37:40.068Z,16.76
2022-08-14T04:38:40.076Z,16.76
2022-08-14T04:39:46.465Z,16.78
2022-08-14T04:40:41.088Z,16.81
2022-08-14T04:41:40.063Z,16.97
2022-08-14T04:42:47.533Z,17.15
2022-08-14T04:43:41.047Z,17.23
2022-08-14T04:44:40.026Z,17.38
2022-08-14T04:45:40.021Z,17.49
2022-08-14T04:46:55.877Z,17.71
2022-08-14T04:47:46.385Z,17.74
2022-08-14T04:48:43.206Z,17.74
2022-08-14T04:49:46.742Z,17.90
2022-08-14T04:50:44.417Z,18.22
2022-08-14T04:51:55.518Z,18.44
2022-08-14T04:52:40.976Z,18.89
2022-08-14T04:53:43.284Z,19.27
2022-08-14T04:54:40.001Z,19.40
2022-08-14T04:55:39.928Z,19.69
2022-08-14T04:56:39.942Z,19.63
2022-08-14T04:57:39.915Z,19.76
2022-08-14T04:58:39.933Z,19.64
2022-08-14T04:59:39.912Z,19.84
2022-08-14T05:00:39.907Z,19.91
2022-08-14T05:01:40.570Z,20.06
2022-08-14T05:02:39.933Z,20.03
2022-08-14T05:03:39.908Z,20.10
2022-08-14T05:04:39.986Z,20.41
2022-08-14T05:05:40.866Z,20.56
2022-08-14T05:06:39.942Z,20.52
2022-08-14T05:07:53.866Z,20.90
2022-08-14T05:08:57.352Z,21.25
2022-08-14T05:09:43.906Z,21.58
2022-08-14T05:10:43.952Z,21.80
2022-08-14T05:11:40.812Z,21.77
2022-08-14T05:13:12.963Z,21.76
2022-08-14T05:14:33.084Z,21.70
2022-08-14T05:14:53.464Z,22.04
2022-08-14T05:15:40.792Z,22.47
2022-08-14T05:16:39.847Z,22.85
2022-08-14T05:17:44.182Z,23.21
2022-08-14T05:19:24.355Z,23.54
2022-08-14T05:19:44.787Z,23.51
2022-08-14T05:21:55.529Z,23.74
2022-08-14T05:22:00.404Z,23.58
2022-08-14T05:22:40.750Z,23.61
2022-08-14T05:23:39.737Z,23.81
2022-08-14T05:24:39.764Z,23.88
2022-08-14T05:25:39.726Z,23.93
2022-08-14T05:26:39.708Z,24.02
2022-08-14T05:27:39.731Z,24.21
2022-08-14T05:28:39.693Z,23.74
2022-08-14T05:29:39.716Z,23.41
2022-08-14T05:30:39.703Z,23.24
2022-08-14T05:31:40.596Z,23.13
2022-08-14T05:32:40.554Z,23.48
2022-08-14T05:33:39.655Z,23.96
2022-08-14T05:34:39.644Z,24.23
2022-08-14T05:35:39.646Z,24.47
2022-08-14T05:36:39.617Z,24.69
2022-08-14T05:37:39.616Z,24.53
2022-08-14T05:38:40.618Z,23.95
2022-08-14T05:39:39.693Z,23.18
2022-08-14T05:40:39.616Z,22.68
2022-08-14T05:41:52.719Z,22.93
2022-08-14T05:42:40.588Z,22.93
2022-08-14T05:43:41.245Z,23.20
2022-08-14T05:44:39.579Z,23.44
2022-08-14T05:45:39.549Z,23.27
2022-08-14T05:46:39.575Z,23.36
2022-08-14T05:47:39.871Z,23.48
2022-08-14T05:48:42.868Z,24.08
2022-08-14T05:49:39.611Z,24.42
2022-08-14T05:50:39.516Z,24.66
2022-08-14T05:51:39.527Z,25.08
2022-08-14T05:52:39.666Z,25.22
2022-08-14T05:53:42.156Z,25.33
2022-08-14T05:54:39.486Z,25.50
2022-08-14T05:55:42.881Z,25.96
2022-08-14T05:56:41.472Z,26.44
2022-08-14T05:57:39.470Z,26.89
2022-08-14T05:58:41.498Z,27.05
2022-08-14T05:59:40.456Z,26.73
2022-08-14T06:00:39.826Z,26.29
2022-08-14T06:01:39.510Z,26.56
2022-08-14T06:02:39.425Z,26.07
2022-08-14T06:03:40.256Z,25.48
2022-08-14T06:04:39.468Z,24.74
2022-08-14T06:05:39.416Z,24.51
2022-08-14T06:06:39.444Z,25.04
2022-08-14T06:07:39.413Z,25.78
2022-08-14T06:08:41.511Z,25.98
2022-08-14T06:09:40.574Z,25.44
2022-08-14T06:10:39.378Z,24.93
2022-08-14T06:11:39.360Z,24.78
2022-08-14T06:12:55.826Z,24.69
2022-08-14T06:13:45.359Z,24.58
2022-08-14T06:14:40.419Z,24.80
2022-08-14T06:15:39.342Z,24.81
2022-08-14T06:16:39.338Z,24.66
2022-08-14T06:17:45.984Z,24.54
2022-08-14T06:18:40.340Z,24.38
2022-08-14T06:19:39.342Z,24.43
2022-08-14T06:20:39.320Z,24.58
2022-08-14T06:21:39.468Z,24.30
2022-08-14T06:22:39.293Z,24.20
2022-08-14T06:23:39.279Z,24.18
2022-08-14T06:24:39.292Z,24.58
2022-08-14T06:25:39.260Z,24.84
2022-08-14T06:26:39.244Z,25.29
2022-08-14T06:27:39.265Z,25.69
2022-08-14T06:28:39.227Z,25.81
2022-08-14T06:29:39.246Z,25.87
2022-08-14T06:30:46.170Z,25.60
2022-08-14T06:31:40.199Z,25.54
2022-08-14T06:32:39.489Z,24.98
2022-08-14T06:35:03.056Z,25.21
2022-08-14T06:35:09.265Z,24.99
2022-08-14T06:35:40.188Z,25.44
2022-08-14T06:36:39.892Z,25.51
2022-08-14T06:37:39.177Z,25.59
2022-08-14T06:38:39.191Z,26.18
2022-08-14T06:39:39.271Z,26.44
2022-08-14T06:40:40.350Z,26.48
2022-08-14T06:41:58.559Z,26.22
2022-08-14T06:42:40.122Z,26.03
2022-08-14T06:43:39.152Z,25.41
2022-08-14T06:44:40.154Z,25.29
2022-08-14T06:45:39.117Z,24.48
2022-08-14T06:46:39.139Z,24.50
2022-08-14T06:47:39.119Z,24.45
2022-08-14T06:48:39.087Z,24.69
2022-08-14T06:49:43.271Z,25.33
2022-08-14T06:50:40.094Z,25.29
2022-08-14T06:51:44.818Z,24.84
2022-08-14T06:52:40.112Z,25.11
2022-08-14T06:53:40.089Z,25.21
2022-08-14T06:54:39.052Z,25.29
2022-08-14T06:55:40.799Z,25.46
2022-08-14T06:56:40.106Z,25.43
2022-08-14T06:57:39.051Z,25.68
2022-08-14T06:58:39.050Z,25.35
2022-08-14T06:59:39.039Z,25.32
2022-08-14T07:00:39.016Z,25.04
2022-08-14T07:01:39.053Z,25.40
2022-08-14T07:02:43.781Z,25.98
2022-08-14T07:03:39.052Z,26.07
2022-08-14T07:04:39.021Z,26.44
2022-08-14T07:05:39.022Z,26.48
2022-08-14T07:06:47.060Z,26.31
2022-08-14T07:07:40.000Z,26.38
2022-08-14T07:08:38.991Z,26.59
2022-08-14T07:09:40.508Z,26.66
2022-08-14T07:10:39.971Z,26.63
2022-08-14T07:11:38.935Z,26.59
2022-08-14T07:13:02.056Z,26.73
2022-08-14T07:13:39.926Z,27.08
2022-08-14T07:14:38.969Z,27.49
2022-08-14T07:15:39.981Z,27.54
2022-08-14T07:16:38.924Z,27.37
2022-08-14T07:17:38.885Z,27.49
2022-08-14T07:18:40.713Z,27.90
2022-08-14T07:19:38.910Z,27.67
2022-08-14T07:20:38.936Z,27.67
2022-08-14T07:21:38.896Z,27.95
2022-08-14T07:22:56.305Z,27.59
2022-08-14T07:23:40.283Z,28.10
2022-08-14T07:24:38.855Z,28.32
2022-08-14T07:25:38.870Z,28.48
2022-08-14T07:26:38.872Z,28.38
2022-08-14T07:27:38.854Z,28.45
2022-08-14T07:28:43.250Z,28.15
2022-08-14T07:29:38.889Z,27.54
2022-08-14T07:30:42.095Z,27.87
2022-08-14T07:31:39.808Z,28.30
2022-08-14T07:32:38.832Z,28.45
2022-08-14T07:33:41.927Z,28.54
2022-08-14T07:34:41.207Z,29.10
2022-08-14T07:35:57.683Z,29.20
2022-08-14T07:36:39.789Z,29.14
2022-08-14T07:37:39.805Z,29.20
2022-08-14T07:38:38.763Z,29.41
2022-08-14T07:39:38.929Z,29.27
2022-08-14T07:40:38.748Z,28.86
2022-08-14T07:41:38.876Z,29.38
2022-08-14T07:42:41.135Z,29.53
2022-08-14T07:43:38.782Z,29.71
2022-08-14T07:44:45.803Z,29.91
2022-08-14T07:45:39.708Z,29.66
2022-08-14T07:46:38.714Z,30.09
2022-08-14T07:47:38.708Z,30.02
2022-08-14T07:48:38.685Z,30.10
2022-08-14T07:49:38.701Z,29.53
2022-08-14T07:50:38.725Z,29.16
2022-08-14T07:51:38.664Z,29.61
2022-08-14T07:52:38.648Z,30.21
2022-08-14T07:53:40.521Z,30.85
2022-08-14T07:54:38.713Z,31.06
2022-08-14T07:55:38.617Z,31.02
2022-08-14T07:56:47.029Z,30.47
2022-08-14T07:57:39.610Z,30.68
2022-08-14T07:58:38.958Z,31.52
2022-08-14T07:59:42.557Z,32.23
2022-08-14T08:00:38.685Z,31.77
2022-08-14T08:01:39.553Z,32.03
2022-08-14T08:02:40.703Z,31.69
2022-08-14T08:03:38.621Z,31.56
2022-08-14T08:04:38.580Z,31.10
2022-08-14T08:05:38.557Z,30.19
2022-08-14T08:06:38.561Z,29.34
2022-08-14T08:07:39.123Z,28.66
2022-08-14T08:08:38.573Z,29.41
2022-08-14T08:09:38.541Z,30.30
2022-08-14T08:11:02.525Z,30.91
2022-08-14T08:11:39.522Z,31.52
2022-08-14T08:12:38.556Z,30.85
2022-08-14T08:14:17.616Z,30.62
2022-08-14T08:14:56.541Z,30.18
2022-08-14T08:15:38.541Z,29.32
2022-08-14T08:16:38.474Z,29.54
2022-08-14T08:17:53.452Z,30.43
2022-08-14T08:18:39.531Z,31.06
2022-08-14T08:19:39.847Z,32.01
2022-08-14T08:20:38.498Z,32.03
2022-08-14T08:21:38.579Z,31.61
2022-08-14T08:22:39.448Z,31.55
2022-08-14T08:23:50.979Z,31.51
2022-08-14T08:24:39.416Z,30.19
2022-08-14T08:25:39.968Z,29.72
2022-08-14T08:26:38.715Z,29.63
2022-08-14T08:27:39.033Z,29.44
2022-08-14T08:28:43.689Z,30.00
2022-08-14T08:29:38.385Z,30.34
2022-08-14T08:30:49.355Z,29.91
2022-08-14T08:31:39.394Z,28.81
2022-08-14T08:32:38.470Z,28.52
2022-08-14T08:33:38.386Z,29.49
2022-08-14T08:34:38.368Z,30.21
2022-08-14T08:35:46.803Z,30.55
2022-08-14T08:36:39.470Z,30.96
2022-08-14T08:37:40.392Z,31.28
2022-08-14T08:39:18.538Z,31.54
2022-08-14T08:40:01.973Z,31.66
2022-08-14T08:40:42.424Z,31.03
2022-08-14T08:41:38.327Z,29.95
2022-08-14T08:42:44.585Z,29.56
2022-08-14T08:43:39.348Z,29.65
2022-08-14T08:44:39.281Z,29.71
2022-08-14T08:45:38.269Z,29.69
2022-08-14T08:46:38.282Z,30.06
2022-08-14T08:47:38.280Z,30.62
2022-08-14T08:48:44.260Z,30.40
2022-08-14T08:49:42.794Z,29.75
2022-08-14T08:51:25.049Z,29.39
2022-08-14T08:52:30.861Z,28.82
2022-08-14T08:53:25.856Z,29.19
2022-08-14T08:54:26.634Z,28.93
2022-08-14T08:55:25.842Z,29.04
2022-08-14T08:56:30.670Z,29.61
2022-08-14T08:57:25.840Z,30.12
2022-08-14T08:58:25.480Z,30.05
2022-08-14T08:59:27.102Z,29.71
2022-08-14T09:00:26.440Z,30.12
2022-08-14T09:01:24.923Z,30.68
2022-08-14T09:02:26.082Z,30.91
2022-08-14T09:03:24.804Z,30.48
2022-08-14T09:04:24.802Z,29.94
2022-08-14T09:05:24.811Z,30.03
2022-08-14T09:07:00.357Z,30.57
2022-08-14T09:07:25.765Z,31.20
2022-08-14T09:08:31.285Z,31.49
2022-08-14T09:09:25.794Z,31.02
2022-08-14T09:10:27.168Z,31.70
2022-08-14T09:11:24.811Z,31.74
2022-08-14T09:12:24.739Z,31.55
2022-08-14T09:13:24.726Z,31.73
2022-08-14T09:14:24.768Z,31.10
2022-08-14T09:15:24.710Z,30.55
2022-08-14T09:16:24.989Z,30.40
2022-08-14T09:17:25.775Z,30.40
2022-08-14T09:18:24.747Z,29.41
2022-08-14T09:19:24.657Z,29.39
2022-08-14T09:20:29.500Z,29.08
2022-08-14T09:21:31.174Z,28.72
2022-08-14T09:22:36.100Z,29.08
2022-08-14T09:23:27.480Z,29.02
2022-08-14T09:24:28.183Z,29.05
2022-08-14T09:26:00.422Z,29.42
2022-08-14T09:26:28.620Z,30.13
2022-08-14T09:27:24.640Z,31.05
2022-08-14T09:28:24.624Z,31.18
2022-08-14T09:29:24.622Z,30.77
2022-08-14T09:30:32.269Z,31.02
2022-08-14T09:31:25.594Z,30.85
2022-08-14T09:32:58.034Z,30.81
2022-08-14T09:33:25.587Z,31.17
2022-08-14T09:34:28.007Z,31.22
2022-08-14T09:35:24.591Z,31.02
2022-08-14T09:36:24.566Z,30.13
2022-08-14T09:37:24.615Z,30.39
2022-08-14T09:38:26.169Z,31.28
2022-08-14T09:39:24.608Z,31.49
2022-08-14T09:40:24.658Z,31.49
2022-08-14T09:41:24.536Z,31.22
2022-08-14T09:42:33.161Z,31.47
2022-08-14T09:43:26.403Z,31.62
2022-08-14T09:44:24.520Z,31.42
2022-08-14T09:45:24.516Z,31.12
2022-08-14T09:46:25.839Z,31.10
2022-08-14T09:47:24.476Z,30.57
2022-08-14T09:48:27.877Z,30.62
2022-08-14T09:49:25.490Z,30.61
2022-08-14T09:50:26.127Z,30.63
2022-08-14T09:51:25.420Z,31.49
2022-08-14T09:52:34.292Z,31.81
2022-08-14T09:54:12.939Z,31.43
2022-08-14T09:54:25.468Z,30.54
2022-08-14T09:55:24.476Z,29.73
2022-08-14T09:56:31.255Z,29.79
2022-08-14T09:57:27.745Z,30.55
2022-08-14T09:58:24.749Z,31.36
2022-08-14T09:59:24.442Z,30.59
2022-08-14T10:00:28.341Z,30.73
2022-08-14T10:01:25.404Z,31.07
2022-08-14T10:02:24.463Z,31.49
2022-08-14T10:03:24.361Z,31.02
2022-08-14T10:04:35.055Z,31.14
2022-08-14T10:05:25.366Z,31.47
2022-08-14T10:06:24.479Z,31.89
2022-08-14T10:07:24.349Z,31.44
2022-08-14T10:08:26.549Z,30.88
2022-08-14T10:09:24.850Z,31.03
2022-08-14T10:10:24.380Z,31.43
2022-08-14T10:11:24.386Z,30.50
2022-08-14T10:12:29.046Z,30.54
2022-08-14T10:13:25.312Z,31.03
2022-08-14T10:14:29.297Z,31.09
2022-08-14T10:15:25.421Z,31.20
2022-08-14T10:16:27.358Z,31.40
2022-08-14T10:17:25.327Z,31.47
2022-08-14T10:18:24.303Z,32.33
2022-08-14T10:19:24.290Z,31.85
2022-08-14T10:20:39.980Z,31.00
2022-08-14T10:21:25.270Z,30.37
2022-08-14T10:23:15.599Z,30.72
2022-08-14T10:23:26.246Z,31.74
2022-08-14T10:24:24.245Z,32.09
2022-08-14T10:25:25.272Z,32.11
2022-08-14T10:26:28.209Z,32.31
2022-08-14T10:27:24.304Z,32.75
2022-08-14T10:29:03.929Z,31.94
2022-08-14T10:29:25.237Z,32.30
2022-08-14T10:30:25.583Z,32.70
2022-08-14T10:31:25.398Z,32.14
2022-08-14T10:32:36.166Z,31.52
2022-08-14T10:33:25.211Z,30.81
2022-08-14T10:34:29.258Z,30.40
2022-08-14T10:35:31.835Z,30.84
2022-08-14T10:36:37.085Z,30.85
2022-08-14T10:37:27.840Z,30.65
2022-08-14T10:38:24.155Z,31.07
2022-08-14T10:39:25.152Z,31.44
2022-08-14T10:40:44.121Z,31.59
2022-08-14T10:41:31.699Z,31.65
2022-08-14T10:42:25.113Z,31.54
2022-08-14T10:43:24.211Z,31.89
2022-08-14T10:44:24.090Z,31.90
2022-08-14T10:45:24.256Z,31.51
2022-08-14T10:47:37.181Z,31.21
2022-08-14T10:47:39.846Z,30.68
2022-08-14T10:48:37.161Z,30.05
2022-08-14T10:49:25.075Z,29.94
2022-08-14T10:50:24.106Z,30.43
2022-08-14T10:51:24.162Z,31.05
2022-08-14T10:52:24.064Z,30.44
2022-08-14T10:53:24.064Z,30.59
2022-08-14T10:54:39.896Z,30.92
2022-08-14T10:55:25.020Z,31.73
2022-08-14T10:56:33.836Z,32.21
2022-08-14T10:57:25.090Z,32.09
2022-08-14T10:58:24.041Z,31.81
2022-08-14T10:59:30.863Z,30.85
2022-08-14T11:00:30.303Z,30.47
2022-08-14T11:01:24.997Z,30.21
2022-08-14T11:02:44.853Z,30.40
2022-08-14T11:03:26.694Z,30.12
2022-08-14T11:04:26.004Z,30.13
2022-08-14T11:05:24.950Z,30.66
2022-08-14T11:06:24.777Z,31.12
2022-08-14T11:07:23.945Z,31.37
2022-08-14T11:08:23.976Z,30.92
2022-08-14T11:09:26.652Z,30.87
2022-08-14T11:10:25.088Z,30.72
2022-08-14T11:11:23.941Z,30.06
2022-08-14T11:12:34.315Z,29.75
2022-08-14T11:13:24.943Z,29.56
2022-08-14T11:14:26.410Z,29.72
2022-08-14T11:15:23.904Z,29.73
2022-08-14T11:16:23.931Z,30.09
2022-08-14T11:17:23.914Z,30.39
2022-08-14T11:18:32.311Z,30.90
2022-08-14T11:19:25.069Z,31.20
2022-08-14T11:20:24.115Z,30.99
2022-08-14T11:21:23.879Z,30.96
2022-08-14T11:22:52.430Z,30.96
2022-08-14T11:23:24.843Z,30.88
2022-08-14T11:24:50.764Z,30.57
2022-08-14T11:25:24.824Z,30.50
2022-08-14T11:26:25.844Z,31.12
2022-08-14T11:27:33.158Z,31.73
2022-08-14T11:28:47.542Z,31.66
2022-08-14T11:29:26.923Z,31.42
2022-08-14T11:30:50.742Z,31.28
2022-08-14T11:31:24.865Z,31.09
2022-08-14T11:32:23.854Z,30.92
2022-08-14T11:33:23.752Z,30.03
2022-08-14T11:34:32.131Z,30.13
2022-08-14T11:35:24.749Z,30.37
2022-08-14T11:36:35.130Z,30.96
2022-08-14T11:37:38.107Z,31.62
2022-08-14T11:38:25.765Z,31.40
2022-08-14T11:39:34.427Z,31.07
2022-08-14T11:40:29.389Z,30.91
2022-08-14T11:41:24.682Z,31.25
2022-08-14T11:42:57.144Z,32.09
2022-08-14T11:43:29.624Z,32.68
2022-08-14T11:44:45.656Z,32.73
2022-08-14T11:45:24.681Z,32.15
2022-08-14T11:46:29.759Z,32.00
2022-08-14T11:47:25.538Z,31.78
2022-08-14T11:49:04.453Z,31.96
2022-08-14T11:49:24.677Z,31.21
2022-08-14T11:50:25.126Z,30.85
2022-08-14T11:51:24.662Z,30.69
2022-08-14T11:52:23.663Z,31.24
2022-08-14T11:53:23.640Z,31.87
2022-08-14T11:54:33.902Z,32.11
2022-08-14T11:55:25.665Z,32.18
2022-08-14T11:56:25.595Z,32.34
2022-08-14T11:57:23.592Z,32.31
2022-08-14T11:58:23.806Z,32.03
2022-08-14T11:59:26.196Z,31.64
2022-08-14T12:00:32.123Z,31.59
2022-08-14T12:01:24.609Z,31.25
2022-08-14T12:03:00.600Z,30.83
2022-08-14T12:03:37.894Z,30.90
2022-08-14T12:04:32.103Z,30.94
2022-08-14T12:05:24.603Z,30.97
2022-08-14T12:06:29.207Z,31.43
2022-08-14T12:07:24.543Z,31.54
2022-08-14T12:08:24.255Z,31.15
2022-08-14T12:09:23.576Z,31.15
2022-08-14T12:10:27.293Z,31.25
2022-08-14T12:11:24.564Z,31.40
2022-08-14T12:12:35.006Z,31.69
2022-08-14T12:13:27.265Z,32.43
2022-08-14T12:14:30.873Z,32.96
2022-08-14T12:15:24.520Z,33.30
2022-08-14T12:16:23.519Z,32.65
2022-08-14T12:17:24.204Z,33.01
2022-08-14T12:18:23.458Z,33.32
2022-08-14T12:19:23.464Z,33.30
2022-08-14T12:20:29.967Z,33.50
2022-08-14T12:21:25.588Z,33.67
2022-08-14T12:22:29.681Z,33.39
2022-08-14T12:23:24.801Z,33.58
2022-08-14T12:24:35.981Z,33.22
2022-08-14T12:25:24.909Z,33.58
2022-08-14T12:26:39.178Z,33.80
2022-08-14T12:27:25.313Z,33.40
2022-08-14T12:28:26.948Z,32.92
2022-08-14T12:29:24.377Z,32.11
2022-08-14T12:30:23.376Z,31.58
2022-08-14T12:31:23.371Z,31.36
2022-08-14T12:32:23.397Z,31.43
2022-08-14T12:33:24.081Z,31.28
2022-08-14T12:34:24.237Z,31.34
2022-08-14T12:35:23.328Z,31.42
2022-08-14T12:36:23.362Z,31.43
2022-08-14T12:37:23.324Z,31.42
2022-08-14T12:38:23.440Z,31.49
2022-08-14T12:39:23.946Z,31.56
2022-08-14T12:40:23.394Z,31.10
2022-08-14T12:41:24.207Z,31.00
2022-08-14T12:42:27.441Z,30.88
2022-08-14T12:43:24.382Z,30.87
2022-08-14T12:44:23.291Z,30.72
2022-08-14T12:45:23.288Z,30.62
2022-08-14T12:46:27.429Z,30.75
2022-08-14T12:47:25.024Z,30.81
2022-08-14T12:48:32.141Z,30.84
2022-08-14T12:49:25.967Z,31.05
2022-08-14T12:50:23.244Z,30.99
2022-08-14T12:51:25.251Z,31.02
2022-08-14T12:52:30.792Z,30.84
2022-08-14T12:53:24.257Z,30.87
2022-08-14T12:54:28.688Z,30.88
2022-08-14T12:56:00.521Z,30.68
2022-08-14T12:56:33.254Z,30.75
2022-08-14T12:57:24.173Z,30.92
2022-08-14T12:58:29.547Z,31.17
2022-08-14T12:59:24.213Z,31.17
2022-08-14T13:00:24.210Z,30.94
2022-08-14T13:01:24.210Z,30.92
2022-08-14T13:02:26.124Z,30.88
2022-08-14T13:03:24.052Z,30.84
2022-08-14T13:04:23.231Z,30.81
2022-08-14T13:05:23.560Z,30.80
2022-08-14T13:06:23.119Z,31.05
2022-08-14T13:07:23.968Z,30.77
2022-08-14T13:08:33.530Z,30.75
2022-08-14T13:09:24.089Z,30.73
2022-08-14T13:10:52.018Z,30.69
2022-08-14T13:11:24.293Z,30.80
2022-08-14T13:12:34.801Z,30.87
2022-08-14T13:13:24.083Z,31.10
2022-08-14T13:14:29.624Z,31.33
2022-08-14T13:15:25.090Z,31.43
2022-08-14T13:16:38.238Z,31.20
2022-08-14T13:17:24.151Z,30.97
2022-08-14T13:18:23.020Z,30.83
2022-08-14T13:19:24.237Z,31.07
2022-08-14T13:20:24.639Z,31.06
2022-08-14T13:21:23.097Z,31.46
2022-08-14T13:22:31.987Z,31.64
2022-08-14T13:23:30.501Z,31.80
2022-08-14T13:24:24.053Z,32.34
2022-08-14T13:25:23.009Z,32.38
2022-08-14T13:26:22.972Z,32.19